DLH2471 EGLL-EDDF
Flight info
| Callsign | DLH2471 |
|---|---|
| Flight time | 1h 7m |
| Altitude | 37000 |
| Route | BPK6J BPK Q295 MATCH DCT REDFA DCT TACHA DCT NOLRU DCT DIXAT DIXAT1A |
| Aircraft | A359/H-SDE2E3GHIJ3J4J5LM1ORWXY/LB1D1 |
Departure
| Time | 2026-05-06 18:08 |
|---|---|
| Airport | London Heathrow Airport (EGLL) |
Arrival
| Time | 2026-05-06 19:15 |
|---|---|
| Airport | Frankfurt Main Airport (EDDF) |
| Time | Latitude | Longitude | Altitude | Speed | Heading |
|---|---|---|---|---|---|
| 2026-05-06 17:50 | 51.47329 | -0.43919 | 94 ft | 0 kts | 88° |
| 2026-05-06 17:55 | 51.47329 | -0.43930 | 93 ft | 2 kts | 89° |
| 2026-05-06 17:55 | 51.47328 | -0.43932 | 92 ft | 0 kts | 90° |
| 2026-05-06 17:55 | 51.47329 | -0.43951 | 96 ft | 1 kts | 91° |
| 2026-05-06 17:55 | 51.47329 | -0.43968 | 97 ft | 1 kts | 94° |
| 2026-05-06 17:56 | 51.47329 | -0.43979 | 95 ft | 2 kts | 95° |
| 2026-05-06 17:56 | 51.47331 | -0.44005 | 95 ft | 2 kts | 100° |
| 2026-05-06 17:56 | 51.47335 | -0.44031 | 94 ft | 2 kts | 112° |
| 2026-05-06 17:56 | 51.47344 | -0.44053 | 93 ft | 2 kts | 146° |
| 2026-05-06 17:57 | 51.47358 | -0.44062 | 93 ft | 1 kts | 176° |
| 2026-05-06 17:57 | 51.47363 | -0.44062 | 93 ft | 0 kts | 179° |
| 2026-05-06 17:59 | 51.47362 | -0.44062 | 93 ft | 0 kts | 179° |
| 2026-05-06 17:59 | 51.47345 | -0.44062 | 93 ft | 6 kts | 180° |
| 2026-05-06 17:59 | 51.47280 | -0.44062 | 95 ft | 12 kts | 180° |
| 2026-05-06 17:59 | 51.47185 | -0.44061 | 95 ft | 15 kts | 179° |
| 2026-05-06 18:00 | 51.47069 | -0.44061 | 95 ft | 19 kts | 180° |
| 2026-05-06 18:00 | 51.46929 | -0.44059 | 93 ft | 22 kts | 179° |
| 2026-05-06 18:00 | 51.46786 | -0.44057 | 95 ft | 16 kts | 179° |
| 2026-05-06 18:00 | 51.46684 | -0.44074 | 90 ft | 8 kts | 215° |
| 2026-05-06 18:01 | 51.46669 | -0.44138 | 90 ft | 9 kts | 259° |
| 2026-05-06 18:01 | 51.46666 | -0.44260 | 89 ft | 13 kts | 271° |
| 2026-05-06 18:01 | 51.46667 | -0.44432 | 92 ft | 17 kts | 270° |
| 2026-05-06 18:01 | 51.46666 | -0.44639 | 95 ft | 20 kts | 269° |
| 2026-05-06 18:02 | 51.46666 | -0.44862 | 98 ft | 21 kts | 270° |
| 2026-05-06 18:02 | 51.46665 | -0.45109 | 98 ft | 24 kts | 270° |
| 2026-05-06 18:02 | 51.46665 | -0.45403 | 90 ft | 29 kts | 269° |
| 2026-05-06 18:02 | 51.46663 | -0.45690 | 87 ft | 22 kts | 270° |
| 2026-05-06 18:03 | 51.46661 | -0.45951 | 88 ft | 24 kts | 269° |
| 2026-05-06 18:03 | 51.46660 | -0.46220 | 93 ft | 24 kts | 270° |
| 2026-05-06 18:03 | 51.46661 | -0.46404 | 92 ft | 26 kts | 269° |
| 2026-05-06 18:03 | 51.46660 | -0.46735 | 97 ft | 19 kts | 270° |
| 2026-05-06 18:04 | 51.46659 | -0.46963 | 96 ft | 22 kts | 269° |
| 2026-05-06 18:04 | 51.46658 | -0.47234 | 92 ft | 26 kts | 270° |
| 2026-05-06 18:04 | 51.46656 | -0.47498 | 90 ft | 21 kts | 270° |
| 2026-05-06 18:04 | 51.46656 | -0.47660 | 91 ft | 22 kts | 269° |
| 2026-05-06 18:05 | 51.46655 | -0.47916 | 93 ft | 24 kts | 269° |
| 2026-05-06 18:05 | 51.46654 | -0.48189 | 92 ft | 25 kts | 270° |
| 2026-05-06 18:05 | 51.46652 | -0.48474 | 93 ft | 26 kts | 270° |
| 2026-05-06 18:05 | 51.46651 | -0.48706 | 92 ft | 7 kts | 257° |
| 2026-05-06 18:06 | 51.46619 | -0.48755 | 96 ft | 6 kts | 209° |
| 2026-05-06 18:06 | 51.46618 | -0.48755 | 96 ft | 0 kts | 206° |
| 2026-05-06 18:06 | 51.46614 | -0.48758 | 95 ft | 3 kts | 205° |
| 2026-05-06 18:06 | 51.46566 | -0.48784 | 92 ft | 11 kts | 193° |
| 2026-05-06 18:07 | 51.46496 | -0.48745 | 94 ft | 10 kts | 131° |
| 2026-05-06 18:07 | 51.46479 | -0.48655 | 95 ft | 9 kts | 98° |
| 2026-05-06 18:07 | 51.46477 | -0.48521 | 95 ft | 24 kts | 89° |
| 2026-05-06 18:07 | 51.46481 | -0.47813 | 90 ft | 103 kts | 89° |
| 2026-05-06 18:08 | 51.46480 | -0.46290 | 141 ft | 164 kts | 87° |
| 2026-05-06 18:08 | 51.46474 | -0.44388 | 828 ft | 176 kts | 86° |
| 2026-05-06 18:08 | 51.46587 | -0.42346 | 1605 ft | 190 kts | 72° |
| 2026-05-06 18:08 | 51.47231 | -0.40453 | 2372 ft | 196 kts | 47° |
| 2026-05-06 18:09 | 51.48207 | -0.38841 | 3036 ft | 208 kts | 43° |
| 2026-05-06 18:09 | 51.49270 | -0.37117 | 3541 ft | 231 kts | 44° |
| 2026-05-06 18:09 | 51.50434 | -0.35095 | 4134 ft | 250 kts | 47° |
| 2026-05-06 18:09 | 51.51533 | -0.32866 | 4743 ft | 260 kts | 58° |
| 2026-05-06 18:10 | 51.52277 | -0.30202 | 4973 ft | 263 kts | 69° |
| 2026-05-06 18:10 | 51.52871 | -0.27420 | 5006 ft | 264 kts | 70° |
| 2026-05-06 18:10 | 51.53463 | -0.24615 | 4999 ft | 265 kts | 70° |
| 2026-05-06 18:10 | 51.54320 | -0.22015 | 4987 ft | 265 kts | 50° |
| 2026-05-06 18:11 | 51.55739 | -0.20230 | 5000 ft | 263 kts | 26° |
| 2026-05-06 18:11 | 51.57406 | -0.19022 | 5029 ft | 263 kts | 22° |
| 2026-05-06 18:11 | 51.59117 | -0.17951 | 5046 ft | 264 kts | 18° |
| 2026-05-06 18:11 | 51.60870 | -0.17110 | 5038 ft | 263 kts | 15° |
| 2026-05-06 18:12 | 51.62635 | -0.16321 | 5036 ft | 263 kts | 15° |
| 2026-05-06 18:12 | 51.64399 | -0.15527 | 5053 ft | 263 kts | 15° |
| 2026-05-06 18:12 | 51.66169 | -0.14726 | 5040 ft | 264 kts | 15° |
| 2026-05-06 18:12 | 51.67935 | -0.13922 | 5128 ft | 264 kts | 15° |
| 2026-05-06 18:13 | 51.69715 | -0.13105 | 5673 ft | 268 kts | 16° |
| 2026-05-06 18:13 | 51.71514 | -0.12278 | 6706 ft | 270 kts | 17° |
| 2026-05-06 18:13 | 51.73279 | -0.11246 | 7744 ft | 272 kts | 27° |
| 2026-05-06 18:13 | 51.74703 | -0.09246 | 8784 ft | 276 kts | 54° |
| 2026-05-06 18:14 | 51.75467 | -0.06377 | 9811 ft | 284 kts | 73° |
| 2026-05-06 18:14 | 51.75892 | -0.03190 | 10539 ft | 300 kts | 79° |
| 2026-05-06 18:14 | 51.76181 | 0.00295 | 10970 ft | 325 kts | 82° |
| 2026-05-06 18:14 | 51.76416 | 0.04061 | 11397 ft | 347 kts | 83° |
| 2026-05-06 18:15 | 51.76654 | 0.08006 | 12129 ft | 358 kts | 83° |
| 2026-05-06 18:15 | 51.76918 | 0.12048 | 12982 ft | 365 kts | 82° |
| 2026-05-06 18:15 | 51.77216 | 0.16166 | 13859 ft | 372 kts | 82° |
| 2026-05-06 18:15 | 51.77539 | 0.20341 | 14629 ft | 377 kts | 81° |
| 2026-05-06 18:16 | 51.77947 | 0.24542 | 15424 ft | 381 kts | 77° |
| 2026-05-06 18:16 | 51.78530 | 0.28752 | 16229 ft | 386 kts | 76° |
| 2026-05-06 18:16 | 51.79173 | 0.32992 | 17032 ft | 391 kts | 75° |
| 2026-05-06 18:16 | 51.79853 | 0.37272 | 17874 ft | 396 kts | 74° |
| 2026-05-06 18:17 | 51.80552 | 0.41600 | 18678 ft | 401 kts | 74° |
| 2026-05-06 18:17 | 51.81260 | 0.45978 | 19404 ft | 406 kts | 75° |
| 2026-05-06 18:17 | 51.81974 | 0.50424 | 20139 ft | 411 kts | 75° |
| 2026-05-06 18:17 | 51.82695 | 0.54945 | 20870 ft | 417 kts | 75° |
| 2026-05-06 18:18 | 51.83417 | 0.59509 | 21588 ft | 422 kts | 75° |
| 2026-05-06 18:18 | 51.84145 | 0.64138 | 22314 ft | 427 kts | 75° |
| 2026-05-06 18:18 | 51.84869 | 0.68769 | 23017 ft | 432 kts | 75° |
| 2026-05-06 18:18 | 51.85609 | 0.73511 | 23695 ft | 438 kts | 75° |
| 2026-05-06 18:19 | 51.86356 | 0.78314 | 24289 ft | 442 kts | 75° |
| 2026-05-06 18:19 | 51.87108 | 0.83164 | 24925 ft | 446 kts | 76° |
| 2026-05-06 18:19 | 51.87861 | 0.88036 | 25555 ft | 449 kts | 76° |
| 2026-05-06 18:19 | 51.88622 | 0.92967 | 26178 ft | 453 kts | 76° |
| 2026-05-06 18:20 | 51.89385 | 0.97928 | 26795 ft | 456 kts | 76° |
| 2026-05-06 18:20 | 51.90154 | 1.02947 | 27419 ft | 460 kts | 76° |
| 2026-05-06 18:20 | 51.90925 | 1.07988 | 28031 ft | 463 kts | 76° |
| 2026-05-06 18:20 | 51.91702 | 1.13088 | 28621 ft | 467 kts | 76° |
| 2026-05-06 18:21 | 51.92481 | 1.18218 | 29207 ft | 471 kts | 76° |
| 2026-05-06 18:21 | 51.93265 | 1.23399 | 29773 ft | 474 kts | 76° |
| 2026-05-06 18:21 | 51.94052 | 1.28611 | 30280 ft | 478 kts | 76° |
| 2026-05-06 18:21 | 51.94841 | 1.33860 | 30719 ft | 481 kts | 76° |
| 2026-05-06 18:22 | 51.95635 | 1.39152 | 31152 ft | 485 kts | 76° |
| 2026-05-06 18:22 | 51.96432 | 1.44490 | 31558 ft | 488 kts | 76° |
| 2026-05-06 18:22 | 51.97231 | 1.49858 | 31979 ft | 491 kts | 76° |
| 2026-05-06 18:22 | 51.98033 | 1.55256 | 32374 ft | 494 kts | 76° |
| 2026-05-06 18:23 | 51.98837 | 1.60696 | 32754 ft | 497 kts | 76° |
| 2026-05-06 18:23 | 51.99643 | 1.66162 | 33109 ft | 500 kts | 76° |
| 2026-05-06 18:23 | 52.00442 | 1.71602 | 33508 ft | 502 kts | 76° |
| 2026-05-06 18:23 | 52.01247 | 1.77109 | 34048 ft | 500 kts | 76° |
| 2026-05-06 18:24 | 52.02048 | 1.82601 | 34475 ft | 499 kts | 76° |
| 2026-05-06 18:24 | 52.02845 | 1.88086 | 34845 ft | 499 kts | 76° |
| 2026-05-06 18:24 | 52.03641 | 1.93585 | 35213 ft | 500 kts | 77° |
| 2026-05-06 18:24 | 52.04434 | 1.99086 | 35567 ft | 501 kts | 77° |
| 2026-05-06 18:25 | 52.05229 | 2.04612 | 35923 ft | 501 kts | 77° |
| 2026-05-06 18:25 | 52.06016 | 2.10111 | 36259 ft | 502 kts | 77° |
| 2026-05-06 18:25 | 52.06806 | 2.15643 | 36582 ft | 503 kts | 77° |
| 2026-05-06 18:25 | 52.07595 | 2.21193 | 36890 ft | 504 kts | 77° |
| 2026-05-06 18:26 | 52.09170 | 2.32331 | 36978 ft | 505 kts | 77° |
| 2026-05-06 18:26 | 52.10733 | 2.43467 | 36959 ft | 506 kts | 77° |
| 2026-05-06 18:27 | 52.12366 | 2.54601 | 36971 ft | 506 kts | 74° |
| 2026-05-06 18:27 | 52.14481 | 2.65536 | 36966 ft | 506 kts | 71° |
| 2026-05-06 18:28 | 52.16681 | 2.76439 | 36960 ft | 507 kts | 72° |
| 2026-05-06 18:28 | 52.18814 | 2.87458 | 36950 ft | 507 kts | 72° |
| 2026-05-06 18:29 | 52.20867 | 2.98393 | 36957 ft | 507 kts | 73° |
| 2026-05-06 18:29 | 52.22914 | 3.09424 | 36970 ft | 508 kts | 73° |
| 2026-05-06 18:30 | 52.24345 | 3.20668 | 36967 ft | 508 kts | 87° |
| 2026-05-06 18:30 | 52.23630 | 3.32054 | 36948 ft | 505 kts | 107° |
| 2026-05-06 18:31 | 52.21283 | 3.42830 | 36940 ft | 505 kts | 112° |
| 2026-05-06 18:31 | 52.18672 | 3.53470 | 36940 ft | 505 kts | 113° |
| 2026-05-06 18:32 | 52.16053 | 3.64081 | 36954 ft | 505 kts | 113° |
| 2026-05-06 18:32 | 52.13460 | 3.74706 | 36949 ft | 505 kts | 113° |
| 2026-05-06 18:33 | 52.10873 | 3.85333 | 36947 ft | 505 kts | 113° |
| 2026-05-06 18:33 | 52.08299 | 3.95866 | 36937 ft | 504 kts | 113° |
| 2026-05-06 18:34 | 52.05697 | 4.06462 | 36935 ft | 503 kts | 113° |
| 2026-05-06 18:34 | 52.03092 | 4.17012 | 36935 ft | 502 kts | 113° |
| 2026-05-06 18:35 | 52.00468 | 4.27583 | 36937 ft | 501 kts | 113° |
| 2026-05-06 18:35 | 51.97853 | 4.38072 | 36938 ft | 500 kts | 113° |
| 2026-05-06 18:36 | 51.95237 | 4.48512 | 36939 ft | 500 kts | 113° |
| 2026-05-06 18:36 | 51.92609 | 4.58950 | 36939 ft | 500 kts | 113° |
| 2026-05-06 18:37 | 51.90420 | 4.67612 | 36936 ft | 500 kts | 114° |
| 2026-05-06 18:37 | 51.87349 | 4.79704 | 36929 ft | 499 kts | 114° |
| 2026-05-06 18:38 | 51.84699 | 4.90086 | 36925 ft | 499 kts | 114° |
| 2026-05-06 18:38 | 51.82042 | 5.00445 | 36928 ft | 499 kts | 114° |
| 2026-05-06 18:39 | 51.79373 | 5.10804 | 36928 ft | 499 kts | 114° |
| 2026-05-06 18:40 | 51.75359 | 5.26296 | 36926 ft | 498 kts | 114° |
| 2026-05-06 18:40 | 51.72659 | 5.36661 | 36914 ft | 498 kts | 114° |
| 2026-05-06 18:41 | 51.70417 | 5.45227 | 36913 ft | 498 kts | 114° |
| 2026-05-06 18:41 | 51.67699 | 5.55572 | 36911 ft | 498 kts | 114° |
| 2026-05-06 18:42 | 51.64978 | 5.65817 | 36907 ft | 497 kts | 116° |
| 2026-05-06 18:42 | 51.61733 | 5.75624 | 36911 ft | 496 kts | 121° |
| 2026-05-06 18:43 | 51.58349 | 5.85287 | 36910 ft | 495 kts | 121° |
| 2026-05-06 18:43 | 51.54934 | 5.94980 | 36913 ft | 495 kts | 121° |
| 2026-05-06 18:44 | 51.51550 | 6.04539 | 36912 ft | 495 kts | 121° |
| 2026-05-06 18:44 | 51.48140 | 6.14134 | 36911 ft | 495 kts | 121° |
| 2026-05-06 18:45 | 51.44698 | 6.23785 | 36909 ft | 495 kts | 122° |
| 2026-05-06 18:45 | 51.41296 | 6.33286 | 36891 ft | 495 kts | 122° |
| 2026-05-06 18:46 | 51.37834 | 6.42917 | 36789 ft | 493 kts | 122° |
| 2026-05-06 18:46 | 51.36144 | 6.47604 | 36551 ft | 493 kts | 122° |
| 2026-05-06 18:46 | 51.34405 | 6.52421 | 36300 ft | 494 kts | 122° |
| 2026-05-06 18:46 | 51.32681 | 6.57185 | 36040 ft | 494 kts | 122° |
| 2026-05-06 18:47 | 51.30959 | 6.61935 | 35790 ft | 494 kts | 122° |
| 2026-05-06 18:47 | 51.29234 | 6.66685 | 35543 ft | 493 kts | 122° |
| 2026-05-06 18:47 | 51.27511 | 6.71420 | 35295 ft | 493 kts | 122° |
| 2026-05-06 18:47 | 51.25784 | 6.76160 | 35052 ft | 493 kts | 122° |
| 2026-05-06 18:48 | 51.24063 | 6.80872 | 34775 ft | 492 kts | 122° |
| 2026-05-06 18:48 | 51.22338 | 6.85586 | 34077 ft | 491 kts | 122° |
| 2026-05-06 18:48 | 51.20618 | 6.90279 | 33151 ft | 485 kts | 122° |
| 2026-05-06 18:48 | 51.18893 | 6.94975 | 32287 ft | 485 kts | 122° |
| 2026-05-06 18:49 | 51.17186 | 6.99613 | 31395 ft | 485 kts | 122° |
| 2026-05-06 18:49 | 51.15471 | 7.04266 | 30503 ft | 486 kts | 122° |
| 2026-05-06 18:49 | 51.13726 | 7.08990 | 29479 ft | 488 kts | 122° |
| 2026-05-06 18:49 | 51.12005 | 7.13644 | 28528 ft | 488 kts | 121° |
| 2026-05-06 18:50 | 51.10293 | 7.18264 | 27859 ft | 481 kts | 121° |
| 2026-05-06 18:50 | 51.08603 | 7.22818 | 27205 ft | 475 kts | 121° |
| 2026-05-06 18:50 | 51.06914 | 7.27299 | 26539 ft | 469 kts | 123° |
| 2026-05-06 18:50 | 51.04919 | 7.31360 | 26037 ft | 467 kts | 135° |
| 2026-05-06 18:51 | 51.02426 | 7.34621 | 25354 ft | 464 kts | 149° |
| 2026-05-06 18:51 | 50.99611 | 7.37103 | 24652 ft | 461 kts | 154° |
| 2026-05-06 18:51 | 50.96753 | 7.39413 | 24001 ft | 458 kts | 154° |
| 2026-05-06 18:51 | 50.93918 | 7.41702 | 23352 ft | 455 kts | 154° |
| 2026-05-06 18:52 | 50.91103 | 7.43988 | 22648 ft | 452 kts | 154° |
| 2026-05-06 18:52 | 50.88315 | 7.46258 | 22036 ft | 448 kts | 154° |
| 2026-05-06 18:52 | 50.85555 | 7.48511 | 21404 ft | 445 kts | 154° |
| 2026-05-06 18:52 | 50.82814 | 7.50746 | 20778 ft | 441 kts | 154° |
| 2026-05-06 18:53 | 50.80095 | 7.52962 | 20171 ft | 438 kts | 154° |
| 2026-05-06 18:53 | 50.77394 | 7.55161 | 19563 ft | 435 kts | 154° |
| 2026-05-06 18:53 | 50.74719 | 7.57338 | 18957 ft | 431 kts | 154° |
| 2026-05-06 18:53 | 50.72052 | 7.59504 | 18346 ft | 428 kts | 154° |
| 2026-05-06 18:54 | 50.69422 | 7.61637 | 17713 ft | 425 kts | 154° |
| 2026-05-06 18:54 | 50.66797 | 7.63775 | 17195 ft | 421 kts | 154° |
| 2026-05-06 18:54 | 50.64202 | 7.65873 | 16691 ft | 418 kts | 155° |
| 2026-05-06 18:54 | 50.61624 | 7.67954 | 16166 ft | 415 kts | 155° |
| 2026-05-06 18:55 | 50.59062 | 7.70021 | 15684 ft | 412 kts | 155° |
| 2026-05-06 18:55 | 50.56524 | 7.72073 | 15221 ft | 409 kts | 155° |
| 2026-05-06 18:55 | 50.54002 | 7.74100 | 14745 ft | 406 kts | 155° |
| 2026-05-06 18:55 | 50.51495 | 7.76111 | 14302 ft | 403 kts | 155° |
| 2026-05-06 18:56 | 50.49004 | 7.78108 | 13845 ft | 400 kts | 155° |
| 2026-05-06 18:56 | 50.46537 | 7.80085 | 13353 ft | 397 kts | 155° |
| 2026-05-06 18:56 | 50.44096 | 7.82088 | 12890 ft | 395 kts | 152° |
| 2026-05-06 18:56 | 50.41845 | 7.84533 | 12581 ft | 388 kts | 144° |
| 2026-05-06 18:57 | 50.39780 | 7.87100 | 12368 ft | 370 kts | 143° |
| 2026-05-06 18:57 | 50.37784 | 7.89602 | 12136 ft | 355 kts | 143° |
| 2026-05-06 18:57 | 50.35887 | 7.91967 | 11876 ft | 343 kts | 143° |
| 2026-05-06 18:57 | 50.34047 | 7.94253 | 11642 ft | 331 kts | 143° |
| 2026-05-06 18:58 | 50.32273 | 7.96451 | 11432 ft | 320 kts | 144° |
| 2026-05-06 18:58 | 50.30560 | 7.98570 | 11177 ft | 310 kts | 144° |
| 2026-05-06 18:58 | 50.28881 | 8.00644 | 10825 ft | 306 kts | 144° |
| 2026-05-06 18:58 | 50.27216 | 8.02703 | 10429 ft | 303 kts | 144° |
| 2026-05-06 18:59 | 50.25723 | 8.05020 | 10083 ft | 301 kts | 131° |
| 2026-05-06 18:59 | 50.24433 | 8.07597 | 9989 ft | 297 kts | 129° |
| 2026-05-06 18:59 | 50.23181 | 8.10168 | 9989 ft | 297 kts | 129° |
| 2026-05-06 18:59 | 50.21930 | 8.12725 | 10008 ft | 297 kts | 130° |
| 2026-05-06 19:00 | 50.20672 | 8.15283 | 9989 ft | 297 kts | 130° |
| 2026-05-06 19:00 | 50.19414 | 8.17838 | 9999 ft | 296 kts | 130° |
| 2026-05-06 19:00 | 50.18155 | 8.20387 | 9981 ft | 296 kts | 130° |
| 2026-05-06 19:00 | 50.17325 | 8.22066 | 9984 ft | 296 kts | 130° |
| 2026-05-06 19:01 | 50.15636 | 8.25480 | 9994 ft | 296 kts | 130° |
| 2026-05-06 19:01 | 50.14377 | 8.28022 | 9965 ft | 295 kts | 130° |
| 2026-05-06 19:01 | 50.13134 | 8.30529 | 9596 ft | 292 kts | 130° |
| 2026-05-06 19:01 | 50.11882 | 8.33046 | 9111 ft | 293 kts | 130° |
| 2026-05-06 19:02 | 50.10726 | 8.35656 | 8650 ft | 294 kts | 120° |
| 2026-05-06 19:02 | 50.10224 | 8.38690 | 8222 ft | 297 kts | 91° |
| 2026-05-06 19:02 | 50.10622 | 8.41827 | 7839 ft | 295 kts | 71° |
| 2026-05-06 19:02 | 50.11347 | 8.44806 | 7436 ft | 293 kts | 68° |
| 2026-05-06 19:03 | 50.12087 | 8.47748 | 7088 ft | 291 kts | 69° |
| 2026-05-06 19:03 | 50.12811 | 8.50686 | 6998 ft | 291 kts | 69° |
| 2026-05-06 19:03 | 50.13530 | 8.53641 | 6991 ft | 291 kts | 70° |
| 2026-05-06 19:03 | 50.14243 | 8.56602 | 6992 ft | 291 kts | 70° |
| 2026-05-06 19:04 | 50.14951 | 8.59557 | 6988 ft | 291 kts | 70° |
| 2026-05-06 19:04 | 50.15651 | 8.62489 | 6713 ft | 284 kts | 70° |
| 2026-05-06 19:04 | 50.16319 | 8.65294 | 6414 ft | 266 kts | 70° |
| 2026-05-06 19:04 | 50.16957 | 8.67977 | 6129 ft | 262 kts | 70° |
| 2026-05-06 19:05 | 50.17585 | 8.70613 | 5868 ft | 257 kts | 70° |
| 2026-05-06 19:05 | 50.18202 | 8.73219 | 5590 ft | 254 kts | 70° |
| 2026-05-06 19:05 | 50.18819 | 8.75827 | 5318 ft | 252 kts | 70° |
| 2026-05-06 19:05 | 50.19422 | 8.78376 | 5027 ft | 249 kts | 70° |
| 2026-05-06 19:06 | 50.19822 | 8.80056 | 4824 ft | 249 kts | 70° |
| 2026-05-06 19:06 | 50.20417 | 8.82584 | 4525 ft | 247 kts | 70° |
| 2026-05-06 19:06 | 50.21006 | 8.85094 | 4238 ft | 246 kts | 70° |
| 2026-05-06 19:06 | 50.21780 | 8.88397 | 3990 ft | 243 kts | 69° |
| 2026-05-06 19:07 | 50.22363 | 8.90880 | 3978 ft | 244 kts | 69° |
| 2026-05-06 19:07 | 50.22757 | 8.92561 | 3982 ft | 244 kts | 69° |
| 2026-05-06 19:07 | 50.23338 | 8.95042 | 3982 ft | 244 kts | 70° |
| 2026-05-06 19:07 | 50.23896 | 8.97546 | 3972 ft | 244 kts | 74° |
| 2026-05-06 19:08 | 50.23954 | 9.00163 | 3975 ft | 243 kts | 104° |
| 2026-05-06 19:08 | 50.23198 | 9.02457 | 3972 ft | 238 kts | 135° |
| 2026-05-06 19:08 | 50.21849 | 9.03822 | 3978 ft | 233 kts | 165° |
| 2026-05-06 19:08 | 50.20266 | 9.03927 | 3978 ft | 228 kts | 196° |
| 2026-05-06 19:09 | 50.18869 | 9.02845 | 3982 ft | 225 kts | 217° |
| 2026-05-06 19:09 | 50.17702 | 9.01244 | 3974 ft | 224 kts | 231° |
| 2026-05-06 19:09 | 50.16799 | 8.99269 | 3980 ft | 224 kts | 236° |
| 2026-05-06 19:09 | 50.15751 | 8.97466 | 3982 ft | 224 kts | 225° |
| 2026-05-06 19:10 | 50.14605 | 8.95808 | 3984 ft | 225 kts | 224° |
| 2026-05-06 19:10 | 50.13443 | 8.94171 | 3987 ft | 225 kts | 223° |
| 2026-05-06 19:10 | 50.12283 | 8.92538 | 3988 ft | 225 kts | 223° |
| 2026-05-06 19:10 | 50.11288 | 8.90677 | 3883 ft | 223 kts | 243° |
| 2026-05-06 19:11 | 50.10767 | 8.88424 | 3738 ft | 220 kts | 257° |
| 2026-05-06 19:11 | 50.10513 | 8.86114 | 3541 ft | 214 kts | 260° |
| 2026-05-06 19:11 | 50.10179 | 8.83912 | 3303 ft | 203 kts | 252° |
| 2026-05-06 19:11 | 50.09667 | 8.81931 | 3276 ft | 196 kts | 248° |
| 2026-05-06 19:12 | 50.09133 | 8.79972 | 3278 ft | 196 kts | 248° |
| 2026-05-06 19:12 | 50.08650 | 8.77989 | 3244 ft | 196 kts | 251° |
| 2026-05-06 19:12 | 50.08181 | 8.76000 | 3107 ft | 195 kts | 250° |
| 2026-05-06 19:12 | 50.07701 | 8.74007 | 2935 ft | 201 kts | 251° |
| 2026-05-06 19:13 | 50.07243 | 8.72016 | 2813 ft | 182 kts | 252° |
| 2026-05-06 19:13 | 50.06824 | 8.70265 | 2564 ft | 166 kts | 250° |
| 2026-05-06 19:13 | 50.06384 | 8.68665 | 2228 ft | 157 kts | 249° |
| 2026-05-06 19:13 | 50.05983 | 8.67112 | 1828 ft | 152 kts | 253° |
| 2026-05-06 19:14 | 50.05648 | 8.65591 | 1443 ft | 145 kts | 253° |
| 2026-05-06 19:14 | 50.05321 | 8.64160 | 1160 ft | 137 kts | 253° |
| 2026-05-06 19:14 | 50.05003 | 8.62809 | 942 ft | 130 kts | 251° |
| 2026-05-06 19:14 | 50.04690 | 8.61531 | 749 ft | 127 kts | 253° |
| 2026-05-06 19:15 | 50.04384 | 8.60240 | 598 ft | 128 kts | 251° |
| 2026-05-06 19:15 | 50.04076 | 8.58946 | 420 ft | 128 kts | 252° |
| 2026-05-06 19:15 | 50.03777 | 8.57690 | 358 ft | 112 kts | 250° |
| 2026-05-06 19:15 | 50.03594 | 8.56925 | 358 ft | 33 kts | 249° |
| 2026-05-06 19:16 | 50.03522 | 8.56623 | 358 ft | 30 kts | 250° |
| 2026-05-06 19:16 | 50.03448 | 8.56314 | 361 ft | 31 kts | 250° |
| 2026-05-06 19:16 | 50.03444 | 8.56016 | 355 ft | 25 kts | 279° |
| 2026-05-06 19:16 | 50.03467 | 8.55794 | 358 ft | 18 kts | 279° |
| 2026-05-06 19:17 | 50.03482 | 8.55662 | 355 ft | 10 kts | 280° |
| 2026-05-06 19:17 | 50.03485 | 8.55637 | 352 ft | 0 kts | 280° |
| 2026-05-06 19:17 | 50.03490 | 8.55588 | 352 ft | 9 kts | 279° |
| 2026-05-06 19:18 | 50.03488 | 8.55472 | 359 ft | 12 kts | 259° |
| 2026-05-06 19:18 | 50.03461 | 8.55334 | 361 ft | 15 kts | 251° |
| 2026-05-06 19:18 | 50.03421 | 8.55166 | 356 ft | 18 kts | 249° |
| 2026-05-06 19:18 | 50.03373 | 8.54970 | 360 ft | 21 kts | 249° |
| 2026-05-06 19:19 | 50.03320 | 8.54748 | 359 ft | 23 kts | 249° |
| 2026-05-06 19:19 | 50.03278 | 8.54567 | 362 ft | 12 kts | 250° |
| 2026-05-06 19:19 | 50.03291 | 8.54503 | 359 ft | 6 kts | 314° |
| 2026-05-06 19:19 | 50.03336 | 8.54468 | 360 ft | 9 kts | 340° |
| 2026-05-06 19:20 | 50.03365 | 8.54450 | 356 ft | 0 kts | 341° |
| 2026-05-06 19:21 | 50.03367 | 8.54449 | 356 ft | 3 kts | 341° |
| 2026-05-06 19:21 | 50.03423 | 8.54419 | 357 ft | 14 kts | 340° |
| 2026-05-06 19:21 | 50.03536 | 8.54355 | 359 ft | 19 kts | 339° |
| 2026-05-06 19:22 | 50.03635 | 8.54315 | 358 ft | 7 kts | 15° |
| 2026-05-06 19:22 | 50.03672 | 8.54379 | 357 ft | 11 kts | 63° |
| 2026-05-06 19:22 | 50.03707 | 8.54522 | 356 ft | 17 kts | 70° |
| 2026-05-06 19:22 | 50.03757 | 8.54728 | 357 ft | 23 kts | 69° |
| 2026-05-06 19:23 | 50.03802 | 8.54912 | 362 ft | 0 kts | 69° |
| 2026-05-06 19:25 | 50.03802 | 8.54913 | 362 ft | 0 kts | 69° |
| 2026-05-06 19:25 | 50.03810 | 8.54947 | 362 ft | 8 kts | 69° |
| 2026-05-06 19:25 | 50.03836 | 8.55063 | 360 ft | 15 kts | 71° |
| 2026-05-06 19:26 | 50.03877 | 8.55237 | 356 ft | 19 kts | 69° |
| 2026-05-06 19:26 | 50.03926 | 8.55438 | 362 ft | 21 kts | 69° |
| 2026-05-06 19:26 | 50.03981 | 8.55666 | 357 ft | 24 kts | 69° |
| 2026-05-06 19:26 | 50.04042 | 8.55920 | 334 ft | 26 kts | 69° |
| 2026-05-06 19:27 | 50.04104 | 8.56177 | 359 ft | 14 kts | 70° |
| 2026-05-06 19:27 | 50.04153 | 8.56277 | 358 ft | 8 kts | 13° |
| 2026-05-06 19:27 | 50.04196 | 8.56262 | 358 ft | 9 kts | 344° |
| 2026-05-06 19:27 | 50.04277 | 8.56212 | 359 ft | 13 kts | 326° |
| 2026-05-06 19:28 | 50.04291 | 8.56149 | 357 ft | 6 kts | 269° |
| 2026-05-06 19:28 | 50.04315 | 8.56080 | 362 ft | 9 kts | 321° |
| 2026-05-06 19:28 | 50.04389 | 8.56033 | 360 ft | 14 kts | 346° |
| 2026-05-06 19:28 | 50.04440 | 8.56079 | 359 ft | 10 kts | 57° |
| 2026-05-06 19:29 | 50.04475 | 8.56216 | 362 ft | 18 kts | 70° |
| 2026-05-06 19:29 | 50.04525 | 8.56405 | 360 ft | 19 kts | 57° |
| 2026-05-06 19:29 | 50.04582 | 8.56465 | 359 ft | 11 kts | 29° |
| 2026-05-06 19:29 | 50.04650 | 8.56531 | 360 ft | 8 kts | 52° |
| 2026-05-06 19:30 | 50.04649 | 8.56574 | 358 ft | 1 kts | 124° |
| 2026-05-06 19:30 | 50.04594 | 8.56604 | 352 ft | 0 kts | 110° |